Ora Direzione Vento Velocita' Vento Media Vento Raffica Max. Temperatura Wind Chill Pioggia Pressione
15:49:35.0257 °(WSW)18.2 Kts18.2 Kts20.9 Kts21.0 °C15.7 °C0.0 mm1019.9 Hpa
15:21:11.0258 °(WSW)18.2 Kts17.4 Kts20.9 Kts21.1 °C15.9 °C0.0 mm1020.0 Hpa
14:56:23.0249 °(WSW)13.9 Kts16.5 Kts18.2 Kts21.1 °C16.1 °C0.0 mm1020.1 Hpa
14:42:25.0260 °(W)13.9 Kts14.8 Kts16.5 Kts20.9 °C16.2 °C0.0 mm1020.0 Hpa
14:22:40.0254 °(WSW)15.6 Kts14.8 Kts16.5 Kts21.0 °C16.5 °C0.0 mm1020.0 Hpa
14:08:55.0257 °(WSW)12.2 Kts12.2 Kts13.9 Kts21.2 °C17.4 °C0.0 mm1020.3 Hpa
13:45:35.0248 °(WSW)12.2 Kts11.3 Kts13.9 Kts21.1 °C17.5 °C0.0 mm1020.6 Hpa
13:26:51.0244 °(WSW)12.2 Kts11.3 Kts13.9 Kts21.3 °C17.8 °C0.0 mm1020.7 Hpa
13:07:28.0247 °(WSW)12.2 Kts11.3 Kts13.9 Kts21.3 °C17.8 °C0.0 mm1020.9 Hpa
12:47:49.0244 °(WSW)11.3 Kts10.4 Kts12.2 Kts21.2 °C17.9 °C0.0 mm1021.0 Hpa
12:27:44.0235 °(SW)10.4 Kts10.4 Kts12.2 Kts21.3 °C18.0 °C0.0 mm1021.0 Hpa
12:07:02.0234 °(SW)9.6 Kts7.8 Kts10.4 Kts21.4 °C19.1 °C0.0 mm1021.0 Hpa
11:49:15.0223 °(SW)7.8 Kts7.0 Kts10.4 Kts21.6 °C19.7 °C0.0 mm1021.2 Hpa
11:28:27.0217 °(SW)7.8 Kts7.8 Kts10.4 Kts21.4 °C19.1 °C0.0 mm1021.4 Hpa
11:06:30.0214 °(SW)7.8 Kts7.8 Kts10.4 Kts21.6 °C19.3 °C0.0 mm1021.4 Hpa
10:48:17.0212 °(SSW)9.6 Kts8.7 Kts10.4 Kts21.7 °C19.0 °C0.0 mm1021.5 Hpa
10:29:03.0229 °(SW)8.7 Kts7.0 Kts9.6 Kts21.2 °C19.4 °C0.0 mm1021.5 Hpa
10:09:46.0213 °(SSW)6.1 Kts5.2 Kts9.6 Kts21.9 °C20.9 °C0.0 mm1021.5 Hpa
09:49:02.0220 °(SW)3.5 Kts4.3 Kts9.6 Kts21.4 °C20.7 °C0.0 mm1021.5 Hpa
09:29:00.0229 °(SW)4.3 Kts3.5 Kts9.6 Kts21.0 °C21.0 °C0.0 mm1021.5 Hpa